Time;durP1;ratioP1;P1;durP2;ratioP2;P2;SDS_P1;SDS_P2;PMS_P1;PMS_P2;Temp;Humidity;BMP_temperature;BMP_pressure;BME280_temperature;BME280_humidity;BME280_pressure;Samples;Min_cycle;Max_cycle;Signal;HPM_P1;HPM_P2
2024/01/04 00:00:28;;;;;;;;;2.00;2.00;;;;;13.38;100.00;96710.88;6256522;28;96310;-55
2024/01/04 00:03:32;;;;;;;;;2.00;1.00;;;;;13.08;100.00;96703.16;6256629;27;96481;-55
2024/01/04 00:06:35;;;;;;;;;1.00;1.00;;;;;13.14;100.00;96701.22;6256733;27;96369;-55
2024/01/04 00:09:39;;;;;;;;;1.80;1.80;;;;;13.08;100.00;96705.03;6276922;27;96257;-55
2024/01/04 00:12:42;;;;;;;;;2.00;2.00;;;;;12.97;100.00;96707.06;6281935;27;96164;-56
2024/01/04 00:15:45;;;;;;;;;1.25;1.25;;;;;13.01;100.00;96703.50;6256017;27;96214;-56
2024/01/04 00:18:48;;;;;;;;;2.00;2.00;;;;;12.88;100.00;96696.09;6247690;27;97872;-55
2024/01/04 00:21:52;;;;;;;;;3.00;3.00;;;;;12.86;100.00;96697.47;6244294;27;96579;-56
2024/01/04 00:24:56;;;;;;;;;2.00;2.00;;;;;12.76;100.00;96698.41;6269137;27;96887;-55
2024/01/04 00:27:59;;;;;;;;;2.00;2.00;;;;;12.73;100.00;96706.28;6238401;28;96295;-56
2024/01/04 00:31:02;;;;;;;;;4.00;4.00;;;;;12.70;100.00;96702.28;6255100;28;96422;-56
2024/01/04 00:34:06;;;;;;;;;2.50;2.50;;;;;12.71;100.00;96695.75;6243250;27;98371;-56
2024/01/04 00:37:10;;;;;;;;;2.00;2.00;;;;;12.69;100.00;96689.84;6268882;27;96332;-55
2024/01/04 00:40:14;;;;;;;;;2.60;2.60;;;;;12.61;100.00;96681.56;6238087;27;96417;-56
2024/01/04 00:43:17;;;;;;;;;2.00;2.00;;;;;12.70;100.00;96685.25;6264149;27;96665;-56
2024/01/04 00:46:21;;;;;;;;;2.50;2.50;;;;;12.64;100.00;96683.69;6236555;28;98552;-55
2024/01/04 00:49:24;;;;;;;;;2.00;2.00;;;;;12.62;100.00;96683.97;6270821;27;96341;-55
2024/01/04 00:52:27;;;;;;;;;1.60;1.60;;;;;12.61;100.00;96678.88;6253406;27;96429;-55
2024/01/04 00:55:31;;;;;;;;;2.00;2.00;;;;;12.59;100.00;96668.34;6256282;28;96423;-55
2024/01/04 00:58:34;;;;;;;;;1.00;1.00;;;;;12.51;100.00;96671.69;6276475;27;96253;-56
2024/01/04 01:01:37;;;;;;;;;1.00;1.00;;;;;12.57;100.00;96671.31;6245882;28;96764;-56
2024/01/04 01:04:41;;;;;;;;;1.00;1.00;;;;;12.58;100.00;96647.81;6257491;28;96363;-55
2024/01/04 01:07:44;;;;;;;;;1.00;1.00;;;;;12.55;100.00;96659.19;6263380;27;97163;-55
2024/01/04 01:10:48;;;;;;;;;3.75;3.00;;;;;12.47;100.00;96649.81;6278028;27;96411;-55
2024/01/04 01:13:51;;;;;;;;;1.00;1.00;;;;;12.59;100.00;96649.41;6279138;27;96333;-55
2024/01/04 01:16:55;;;;;;;;;1.50;1.00;;;;;12.56;100.00;96642.69;6247181;28;96373;-55
2024/01/04 01:19:58;;;;;;;;;3.00;3.00;;;;;12.59;100.00;96649.41;6253494;28;96995;-55
2024/01/04 01:23:01;;;;;;;;;3.00;2.00;;;;;12.57;100.00;96649.69;6235551;28;96800;-55
2024/01/04 01:26:05;;;;;;;;;3.25;3.00;;;;;12.51;100.00;96658.16;6253166;28;96365;-55
2024/01/04 01:29:08;;;;;;;;;2.00;2.00;;;;;12.56;100.00;96652.69;6265137;27;96790;-55
2024/01/04 01:32:11;;;;;;;;;3.00;2.00;;;;;12.62;100.00;96656.13;6239001;28;96331;-55
2024/01/04 01:35:15;;;;;;;;;2.00;2.00;;;;;12.58;100.00;96634.28;6277296;27;96253;-55
2024/01/04 01:38:18;;;;;;;;;3.00;3.00;;;;;12.72;100.00;96647.91;6255635;27;96559;-55
2024/01/04 01:41:22;;;;;;;;;2.25;2.25;;;;;12.73;100.00;96653.03;6251349;28;96301;-55
2024/01/04 01:44:25;;;;;;;;;2.00;2.00;;;;;12.74;100.00;96648.44;6234706;28;96405;-55
2024/01/04 01:47:29;;;;;;;;;3.00;2.80;;;;;12.77;100.00;96651.34;6238866;27;96283;-55
2024/01/04 01:50:35;;;;;;;;;2.00;2.00;;;;;12.78;100.00;96649.44;6264032;27;96338;-55
2024/01/04 01:53:39;;;;;;;;;2.00;1.00;;;;;12.82;100.00;96651.28;6278074;27;97449;-55
2024/01/04 01:56:43;;;;;;;;;2.00;2.00;;;;;12.80;100.00;96648.09;6260455;27;96490;-55
2024/01/04 01:59:47;;;;;;;;;1.20;1.20;;;;;12.84;100.00;96651.81;6240448;27;96892;-55
2024/01/04 02:02:50;;;;;;;;;3.00;2.00;;;;;12.83;100.00;96660.19;6250745;22;96969;-58
2024/01/04 02:05:54;;;;;;;;;2.00;1.00;;;;;12.90;100.00;96656.03;6244534;27;96734;-58
2024/01/04 02:08:57;;;;;;;;;2.00;1.00;;;;;12.93;100.00;96666.28;6237797;27;96297;-57
2024/01/04 02:12:06;;;;;;;;;0.00;0.00;;;;;12.98;100.00;96670.81;6236466;28;96883;-57
2024/01/04 02:15:10;;;;;;;;;2.00;1.00;;;;;12.98;100.00;96666.22;6246037;28;98698;-57
2024/01/04 02:18:13;;;;;;;;;3.40;3.00;;;;;13.06;100.00;96674.75;6246490;28;96328;-57
2024/01/04 02:21:17;;;;;;;;;1.60;1.60;;;;;13.12;100.00;96677.16;6215370;27;95989;-58
2024/01/04 02:24:22;;;;;;;;;2.00;2.00;;;;;13.18;100.00;96681.41;6228366;28;98581;-57
2024/01/04 02:27:25;;;;;;;;;2.00;1.60;;;;;13.16;100.00;96691.69;6222470;28;96360;-56
2024/01/04 02:30:28;;;;;;;;;1.60;1.00;;;;;13.15;100.00;96681.97;6234090;28;96934;-58
2024/01/04 02:33:31;;;;;;;;;2.00;2.00;;;;;13.12;100.00;96692.56;6221800;28;96419;-57
2024/01/04 02:36:34;;;;;;;;;2.60;2.60;;;;;13.13;100.00;96696.91;6212177;28;97087;-57
2024/01/04 02:39:39;;;;;;;;;1.00;1.00;;;;;13.07;100.00;96681.78;6197340;28;96823;-57
2024/01/04 02:42:42;;;;;;;;;1.00;1.00;;;;;12.91;100.00;96690.09;6219623;28;97052;-58
2024/01/04 02:45:45;;;;;;;;;2.00;2.00;;;;;12.93;100.00;96692.53;6227652;28;97660;-58
2024/01/04 02:48:48;;;;;;;;;3.00;2.00;;;;;12.91;100.00;96700.91;6229134;28;96340;-57
2024/01/04 02:51:51;;;;;;;;;2.00;1.00;;;;;12.91;100.00;96698.22;6236248;28;96514;-58
2024/01/04 02:54:56;;;;;;;;;1.40;1.00;;;;;12.69;100.00;96713.38;6220394;28;96316;-58
2024/01/04 02:57:59;;;;;;;;;1.00;1.00;;;;;12.69;100.00;96711.47;6207342;28;96183;-59
2024/01/04 03:01:02;;;;;;;;;1.00;1.00;;;;;12.65;100.00;96696.94;6196658;28;97370;-57
2024/01/04 03:04:05;;;;;;;;;1.00;1.00;;;;;12.40;100.00;96695.31;6240096;28;96470;-57
2024/01/04 03:07:09;;;;;;;;;1.00;1.00;;;;;12.44;100.00;96690.13;6233516;28;96241;-59
2024/01/04 03:10:14;;;;;;;;;0.75;0.75;;;;;12.45;100.00;96679.03;6228148;27;96400;-58
2024/01/04 03:13:17;;;;;;;;;1.00;1.00;;;;;12.50;100.00;96670.88;6260124;27;96318;-58
2024/01/04 03:16:21;;;;;;;;;0.00;0.00;;;;;12.62;100.00;96662.34;6248477;27;96289;-57
2024/01/04 03:19:24;;;;;;;;;1.00;1.00;;;;;12.55;100.00;96661.91;6256351;27;96344;-57
2024/01/04 03:22:27;;;;;;;;;1.00;1.00;;;;;12.64;100.00;96662.06;6275616;27;96326;-57
2024/01/04 03:25:32;;;;;;;;;1.00;1.00;;;;;12.63;100.00;96649.63;6271853;27;96593;-58
2024/01/04 03:28:35;;;;;;;;;1.60;1.00;;;;;12.66;100.00;96647.16;6238769;27;96322;-58
2024/01/04 03:31:38;;;;;;;;;1.00;1.00;;;;;12.72;100.00;96648.69;6223442;28;96878;-56
2024/01/04 03:34:41;;;;;;;;;1.00;1.00;;;;;12.80;100.00;96648.09;6239251;28;96556;-57
2024/01/04 03:37:44;;;;;;;;;1.00;1.00;;;;;12.85;100.00;96645.28;6233135;27;99417;-57
2024/01/04 03:40:49;;;;;;;;;2.00;2.00;;;;;12.87;100.00;96642.28;6248018;28;98530;-57
2024/01/04 03:43:52;;;;;;;;;1.00;1.00;;;;;12.85;100.00;96636.41;6245225;27;96350;-57
2024/01/04 03:46:55;;;;;;;;;1.40;1.40;;;;;12.76;100.00;96641.63;6230379;28;96210;-57
2024/01/04 03:49:59;;;;;;;;;1.00;1.00;;;;;12.76;100.00;96644.31;6237898;28;96438;-57
2024/01/04 03:53:03;;;;;;;;;1.00;1.00;;;;;12.74;100.00;96630.31;6240712;28;96863;-58
2024/01/04 03:56:07;;;;;;;;;1.00;1.00;;;;;12.73;100.00;96636.81;6249421;28;96384;-57
2024/01/04 03:59:10;;;;;;;;;2.00;2.00;;;;;12.73;100.00;96630.59;6248860;28;96344;-58
2024/01/04 04:02:13;;;;;;;;;2.00;2.00;;;;;12.65;100.00;96632.06;6225279;28;96284;-59
2024/01/04 04:05:17;;;;;;;;;1.60;1.60;;;;;12.57;100.00;96628.06;6227508;28;96331;-58
2024/01/04 04:08:20;;;;;;;;;2.00;1.80;;;;;12.48;100.00;96626.31;6223073;28;96427;-58
2024/01/04 04:11:25;;;;;;;;;3.00;2.40;;;;;12.53;100.00;96631.66;6201473;28;96345;-58
2024/01/04 04:14:28;;;;;;;;;2.00;2.00;;;;;12.43;100.00;96600.16;6215323;28;96693;-58
2024/01/04 04:17:31;;;;;;;;;1.40;1.40;;;;;12.54;100.00;96611.63;6210705;28;97610;-58
2024/01/04 04:20:35;;;;;;;;;1.00;1.00;;;;;12.44;100.00;96614.47;6200340;28;96718;-57
2024/01/04 04:23:38;;;;;;;;;1.00;1.00;;;;;12.45;100.00;96616.88;6222850;28;96277;-58
2024/01/04 04:26:43;;;;;;;;;3.00;2.00;;;;;12.39;100.00;96614.53;6223302;28;96273;-57
2024/01/04 04:29:46;;;;;;;;;2.00;2.00;;;;;12.35;100.00;96613.50;6197537;28;96299;-61
2024/01/04 04:32:49;;;;;;;;;0.00;0.00;;;;;12.24;100.00;96620.09;6197849;28;96342;-61
2024/01/04 04:35:53;;;;;;;;;1.00;1.00;;;;;12.25;100.00;96624.41;6189691;28;96505;-61
2024/01/04 04:39:04;;;;;;;;;2.00;1.20;;;;;12.22;100.00;96625.78;6198234;28;96853;-61
2024/01/04 04:42:08;;;;;;;;;1.00;1.00;;;;;12.24;100.00;96620.09;6225438;28;96501;-61
2024/01/04 04:45:11;;;;;;;;;2.00;2.00;;;;;12.30;100.00;96637.88;6233593;28;96393;-62
2024/01/04 04:48:15;;;;;;;;;1.50;1.50;;;;;12.31;100.00;96628.69;6207760;28;96836;-61
2024/01/04 04:51:18;;;;;;;;;2.00;2.00;;;;;12.31;100.00;96620.56;6210970;28;96613;-61
2024/01/04 04:54:22;;;;;;;;;1.00;1.00;;;;;12.42;100.00;96624.75;6203464;28;96383;-62
2024/01/04 04:57:26;;;;;;;;;2.00;2.00;;;;;12.40;100.00;96613.44;6202356;28;96368;-62
2024/01/04 05:00:29;;;;;;;;;2.00;2.00;;;;;12.36;100.00;96604.31;6207346;28;96279;-62
2024/01/04 05:03:33;;;;;;;;;2.00;2.00;;;;;12.48;100.00;96616.28;6202227;28;97552;-62
2024/01/04 05:06:36;;;;;;;;;3.00;1.20;;;;;12.44;100.00;96615.28;6216755;27;96581;-62
2024/01/04 05:09:40;;;;;;;;;2.00;2.00;;;;;12.51;100.00;96612.22;6228719;28;96382;-62
2024/01/04 05:12:44;;;;;;;;;2.00;2.00;;;;;12.48;100.00;96619.00;6217839;27;98781;-62
2024/01/04 05:15:47;;;;;;;;;2.00;2.00;;;;;12.46;100.00;96607.66;6242406;27;96319;-62
2024/01/04 05:18:50;;;;;;;;;1.00;1.00;;;;;12.47;100.00;96619.28;6241942;27;96372;-62
2024/01/04 05:21:54;;;;;;;;;1.00;1.00;;;;;12.46;100.00;96612.28;6223712;28;96531;-62
2024/01/04 05:24:57;;;;;;;;;1.20;1.20;;;;;12.38;100.00;96619.13;6227748;27;96825;-61
2024/01/04 05:28:02;;;;;;;;;1.00;1.00;;;;;12.38;100.00;96621.00;6202973;27;99106;-61
2024/01/04 05:31:05;;;;;;;;;1.40;1.40;;;;;12.33;100.00;96627.28;6255430;27;96457;-62
2024/01/04 05:34:08;;;;;;;;;2.00;2.00;;;;;12.35;100.00;96624.31;6237344;27;96569;-62
2024/01/04 05:37:12;;;;;;;;;1.00;1.00;;;;;12.40;100.00;96626.94;6194113;28;98483;-62
2024/01/04 05:40:16;;;;;;;;;1.00;0.80;;;;;12.45;100.00;96632.28;6237708;27;96369;-60
2024/01/04 05:43:20;;;;;;;;;1.00;1.00;;;;;12.36;100.00;96634.03;6230244;28;96377;-60
2024/01/04 05:46:24;;;;;;;;;3.00;2.00;;;;;12.37;100.00;96654.53;6213378;28;96611;-60
2024/01/04 05:49:27;;;;;;;;;2.00;1.40;;;;;12.36;100.00;96659.16;6213354;28;96423;-60
2024/01/04 05:52:30;;;;;;;;;1.75;1.75;;;;;12.41;100.00;96661.00;6233928;27;96286;-60
2024/01/04 05:55:33;;;;;;;;;1.00;1.00;;;;;12.40;100.00;96667.47;6226377;28;96698;-60
2024/01/04 05:58:38;;;;;;;;;1.40;1.40;;;;;12.48;100.00;96672.25;6219218;28;96533;-60
2024/01/04 06:01:41;;;;;;;;;1.00;1.00;;;;;12.50;100.00;96680.88;6219545;27;96414;-60
2024/01/04 06:04:44;;;;;;;;;2.00;2.00;;;;;12.54;100.00;96687.31;6213476;28;97883;-60
2024/01/04 06:07:47;;;;;;;;;1.00;1.00;;;;;12.49;100.00;96690.06;6222524;28;96214;-60
2024/01/04 06:10:50;;;;;;;;;1.25;1.00;;;;;12.48;100.00;96689.25;6224761;27;97508;-61
2024/01/04 06:13:55;;;;;;;;;2.00;2.00;;;;;12.41;100.00;96688.78;6212153;28;97270;-60
2024/01/04 06:16:59;;;;;;;;;2.80;2.00;;;;;12.32;100.00;96692.41;6211296;28;96385;-60
2024/01/04 06:20:05;;;;;;;;;2.00;1.00;;;;;12.47;100.00;96711.97;6203750;28;97457;-60
2024/01/04 06:23:08;;;;;;;;;2.75;2.00;;;;;12.36;100.00;96715.06;6209660;28;96792;-60
2024/01/04 06:26:18;;;;;;;;;0.50;0.50;;;;;12.32;100.00;96722.13;6210522;28;96282;-60
2024/01/04 06:29:22;;;;;;;;;1.00;1.00;;;;;12.23;100.00;96731.94;6207559;28;97498;-61
2024/01/04 06:32:25;;;;;;;;;2.00;2.00;;;;;12.19;100.00;96731.69;6209663;28;96549;-61
2024/01/04 06:35:28;;;;;;;;;3.00;3.00;;;;;12.20;100.00;96733.31;6206911;28;97244;-61
2024/01/04 06:38:32;;;;;;;;;1.00;1.00;;;;;12.09;100.00;96731.78;6204018;28;96552;-61
2024/01/04 06:41:35;;;;;;;;;2.00;1.00;;;;;12.21;100.00;96732.25;6192996;28;96877;-60
2024/01/04 06:44:40;;;;;;;;;1.00;1.00;;;;;12.12;100.00;96733.91;6209559;28;97407;-61
2024/01/04 06:47:49;;;;;;;;;1.00;1.00;;;;;12.11;100.00;96743.94;6225703;28;96378;-61
2024/01/04 06:50:53;;;;;;;;;1.50;1.00;;;;;12.13;100.00;96730.13;6227564;27;98873;-61
2024/01/04 06:53:56;;;;;;;;;1.00;1.00;;;;;12.14;100.00;96726.34;6214968;28;96427;-62
2024/01/04 06:57:06;;;;;;;;;2.00;2.00;;;;;12.19;100.00;96731.69;6213355;28;96266;-62
2024/01/04 07:00:12;;;;;;;;;1.60;1.60;;;;;12.26;100.00;96734.09;6217142;28;96268;-61
2024/01/04 07:03:16;;;;;;;;;1.00;1.00;;;;;12.33;100.00;96743.44;6213437;28;97111;-62
2024/01/04 07:06:20;;;;;;;;;1.80;1.00;;;;;12.38;100.00;96738.00;6215152;28;96710;-61
2024/01/04 07:09:23;;;;;;;;;0.00;0.00;;;;;12.41;100.00;96736.66;6214766;28;96396;-61
2024/01/04 07:12:26;;;;;;;;;2.00;2.00;;;;;12.45;100.00;96743.09;6218615;28;96351;-61
2024/01/04 07:15:31;;;;;;;;;2.33;2.00;;;;;12.49;100.00;96734.13;6202667;27;98425;-61
2024/01/04 07:18:34;;;;;;;;;1.40;1.40;;;;;12.55;100.00;96738.38;6215667;27;96651;-61
2024/01/04 07:21:38;;;;;;;;;1.00;1.00;;;;;12.59;100.00;96747.53;6205192;28;96352;-62
2024/01/04 07:24:41;;;;;;;;;2.00;2.00;;;;;12.64;100.00;96746.66;6226784;28;96383;-62
2024/01/04 07:27:44;;;;;;;;;2.00;1.00;;;;;12.67;100.00;96743.38;6198010;28;96340;-61
2024/01/04 07:30:53;;;;;;;;;2.00;1.00;;;;;12.66;100.00;96741.75;6195809;28;96427;-62
2024/01/04 07:33:56;;;;;;;;;2.00;2.00;;;;;12.72;100.00;96746.03;6202678;28;96645;-61
2024/01/04 07:36:59;;;;;;;;;1.00;1.00;;;;;12.77;100.00;96737.06;6201334;28;96612;-62
2024/01/04 07:40:03;;;;;;;;;3.00;3.00;;;;;12.83;100.00;96741.31;6214129;28;96793;-62
2024/01/04 07:43:07;;;;;;;;;2.00;2.00;;;;;12.77;100.00;96718.13;6205996;28;96858;-61
2024/01/04 07:46:11;;;;;;;;;1.00;1.00;;;;;12.93;100.00;96730.38;6213459;28;96673;-62
2024/01/04 07:49:15;;;;;;;;;3.00;3.00;;;;;12.99;100.00;96732.75;6197644;28;96956;-61
2024/01/04 07:52:18;;;;;;;;;2.80;2.80;;;;;13.04;100.00;96726.47;6211445;28;96668;-62
2024/01/04 07:55:21;;;;;;;;;3.00;3.00;;;;;13.06;100.00;96728.84;6202363;28;97174;-61
2024/01/04 07:58:24;;;;;;;;;3.60;3.00;;;;;13.10;100.00;96729.88;6209499;28;96581;-60
2024/01/04 08:01:29;;;;;;;;;3.60;2.60;;;;;13.16;100.00;96723.34;6210389;27;96256;-61
2024/01/04 08:04:32;;;;;;;;;4.00;4.00;;;;;13.18;100.00;96732.00;6227983;27;96683;-60
2024/01/04 08:07:36;;;;;;;;;5.00;5.00;;;;;13.20;100.00;96727.88;6235991;28;97077;-60
2024/01/04 08:10:39;;;;;;;;;5.00;5.00;;;;;13.21;100.00;96740.31;6233902;27;97379;-60
2024/01/04 08:13:42;;;;;;;;;6.00;6.00;;;;;13.26;100.00;96742.97;6227583;27;96537;-60
2024/01/04 08:16:46;;;;;;;;;5.60;5.60;;;;;13.25;100.00;96738.66;6216440;28;98423;-61
2024/01/04 08:19:49;;;;;;;;;5.40;4.60;;;;;13.20;100.00;96733.31;6240464;27;96419;-60
2024/01/04 08:22:53;;;;;;;;;6.00;4.00;;;;;13.22;100.00;96743.84;6231248;28;96292;-61
2024/01/04 08:25:56;;;;;;;;;5.00;4.00;;;;;13.20;100.00;96741.41;6231042;27;96661;-61
2024/01/04 08:28:59;;;;;;;;;5.00;4.80;;;;;13.19;100.00;96747.94;6217775;28;96384;-60
2024/01/04 08:32:04;;;;;;;;;7.00;5.50;;;;;13.16;100.00;96751.22;6218810;27;98482;-60
2024/01/04 08:35:08;;;;;;;;;5.00;5.00;;;;;13.21;100.00;96755.75;6234819;27;96429;-61
2024/01/04 08:38:11;;;;;;;;;6.00;6.00;;;;;13.29;100.00;96755.13;6219918;28;96439;-61
2024/01/04 08:41:14;;;;;;;;;4.00;3.25;;;;;13.35;100.00;96762.88;6238497;28;96366;-60
2024/01/04 08:44:18;;;;;;;;;5.40;4.80;;;;;13.49;100.00;96762.16;6214710;28;98965;-59
2024/01/04 08:47:23;;;;;;;;;6.00;5.00;;;;;13.53;100.00;96764.00;6237301;28;96353;-60
2024/01/04 08:50:26;;;;;;;;;6.00;6.00;;;;;13.49;100.00;96741.28;6219511;27;97266;-61
2024/01/04 08:53:29;;;;;;;;;4.00;4.00;;;;;13.66;100.00;96765.97;6245017;27;100119;-61
2024/01/04 08:56:33;;;;;;;;;4.00;3.00;;;;;13.72;100.00;96761.28;6229921;27;96439;-60
2024/01/04 08:59:36;;;;;;;;;4.40;4.40;;;;;13.81;100.00;96754.91;6228522;27;98462;-60
2024/01/04 09:02:41;;;;;;;;;3.00;3.00;;;;;14.09;100.00;96766.66;6249743;27;96382;-60
2024/01/04 09:05:44;;;;;;;;;2.00;2.00;;;;;14.38;100.00;96765.66;6235481;28;96326;-61
2024/01/04 09:08:48;;;;;;;;;3.00;3.00;;;;;14.68;100.00;96765.94;6238970;28;96757;-58
2024/01/04 09:11:52;;;;;;;;;3.00;3.00;;;;;14.82;100.00;96774.09;6214102;28;96762;-57
2024/01/04 09:14:55;;;;;;;;;3.00;2.00;;;;;14.83;100.00;96775.72;6229888;28;96160;-58
2024/01/04 09:17:59;;;;;;;;;2.00;2.00;;;;;14.72;100.00;96775.09;6260577;27;96379;-57
2024/01/04 09:21:03;;;;;;;;;1.00;1.00;;;;;14.71;100.00;96767.25;6220520;28;96401;-58
2024/01/04 09:24:07;;;;;;;;;1.75;1.50;;;;;14.64;100.00;96766.84;6247690;27;96353;-57
2024/01/04 09:27:12;;;;;;;;;3.00;2.00;;;;;14.71;100.00;96769.94;6259039;27;96607;-58
2024/01/04 09:30:17;;;;;;;;;2.00;1.60;;;;;14.66;100.00;96768.13;6246360;27;96256;-57
2024/01/04 09:33:24;;;;;;;;;2.00;2.00;;;;;14.67;100.00;96761.63;6226330;28;96501;-57
2024/01/04 09:36:27;;;;;;;;;2.60;2.00;;;;;14.68;100.00;96770.56;6244431;28;96427;-58
2024/01/04 09:39:31;;;;;;;;;1.00;1.00;;;;;14.76;100.00;96772.56;6239585;28;96621;-57
2024/01/04 09:42:38;;;;;;;;;1.75;1.75;;;;;14.74;100.00;96764.75;6249788;27;96859;-58
2024/01/04 09:45:43;;;;;;;;;2.40;2.00;;;;;15.17;100.00;96775.31;6232627;27;96812;-57
2024/01/04 09:48:56;;;;;;;;;1.00;1.00;;;;;15.43;100.00;96778.31;6229947;28;96565;-57
2024/01/04 09:52:01;;;;;;;;;2.00;2.00;;;;;15.71;100.00;96770.94;6221928;28;96289;-58
2024/01/04 09:55:05;;;;;;;;;2.00;1.00;;;;;15.73;100.00;96763.31;6244038;28;96555;-57
2024/01/04 09:58:10;;;;;;;;;1.00;1.00;;;;;17.16;100.00;96770.28;6245160;28;96581;-57
2024/01/04 10:01:19;;;;;;;;;1.00;1.00;;;;;19.41;100.00;96764.34;6244704;28;96306;-59
2024/01/04 10:04:26;;;;;;;;;1.00;1.00;;;;;22.77;100.00;96767.50;6235223;28;96966;-58
2024/01/04 10:07:35;;;;;;;;;0.20;0.20;;;;;23.95;100.00;96771.19;6244741;28;96348;-59
2024/01/04 10:10:41;;;;;;;;;1.00;1.00;;;;;23.06;100.00;96760.00;6240310;28;96713;-58
2024/01/04 10:13:45;;;;;;;;;1.20;1.20;;;;;21.82;100.00;96764.69;6227086;28;97175;-59
2024/01/04 10:16:48;;;;;;;;;1.60;1.60;;;;;20.70;100.00;96760.63;6222992;28;96902;-58
2024/01/04 10:19:53;;;;;;;;;2.00;2.00;;;;;19.45;100.00;96768.84;6239502;28;96358;-62
2024/01/04 10:22:58;;;;;;;;;2.40;2.00;;;;;18.69;100.00;96762.56;6237344;27;96453;-62
2024/01/04 10:26:08;;;;;;;;;2.00;2.00;;;;;17.94;100.00;96771.28;6227170;27;96397;-62
2024/01/04 10:29:20;;;;;;;;;1.00;1.00;;;;;17.24;100.00;96778.50;6239638;27;97924;-62
2024/01/04 10:32:23;;;;;;;;;2.00;1.20;;;;;16.87;100.00;96765.38;6224563;28;96551;-63
2024/01/04 10:35:29;;;;;;;;;1.00;1.00;;;;;16.40;100.00;96764.13;6229020;28;98480;-62
2024/01/04 10:38:33;;;;;;;;;1.00;1.00;;;;;16.04;100.00;96775.06;6236425;28;96431;-62
2024/01/04 10:41:36;;;;;;;;;2.00;2.00;;;;;15.82;100.00;96789.44;6235572;27;97946;-63
2024/01/04 10:44:39;;;;;;;;;1.00;1.00;;;;;15.42;100.00;96784.84;6219941;28;96296;-62
2024/01/04 10:47:48;;;;;;;;;1.00;1.00;;;;;15.21;100.00;96795.31;6235447;27;96283;-61
2024/01/04 10:50:58;;;;;;;;;1.00;1.00;;;;;15.13;100.00;96785.97;6237119;27;96527;-63
2024/01/04 10:54:02;;;;;;;;;3.00;2.00;;;;;15.01;100.00;96784.84;6239097;27;96639;-62
2024/01/04 10:57:05;;;;;;;;;1.00;1.00;;;;;14.84;100.00;96787.38;6237523;28;97218;-62
2024/01/04 11:00:11;;;;;;;;;1.40;1.40;;;;;14.70;100.00;96776.50;6218233;28;96931;-62
2024/01/04 11:03:14;;;;;;;;;2.00;2.00;;;;;14.49;100.00;96767.13;6228143;28;96371;-62
2024/01/04 11:06:20;;;;;;;;;1.60;1.60;;;;;14.52;100.00;96766.50;6214933;28;96812;-62
2024/01/04 11:09:25;;;;;;;;;2.20;2.00;;;;;14.38;100.00;96757.53;6214201;28;96548;-62
2024/01/04 11:12:30;;;;;;;;;3.00;2.00;;;;;14.33;100.00;96763.81;6214152;28;96418;-62
2024/01/04 11:15:33;;;;;;;;;2.00;2.00;;;;;14.39;100.00;96765.38;6237278;28;96965;-62
2024/01/04 11:18:52;;;;;;;;;1.80;1.80;;;;;14.38;100.00;96766.47;6221230;28;98738;-62
2024/01/04 11:22:12;;;;;;;;;2.00;1.00;;;;;14.48;100.00;96765.50;6216024;28;96348;-62
2024/01/04 11:25:30;;;;;;;;;2.00;2.00;;;;;14.43;100.00;96760.16;6219849;28;96360;-62
2024/01/04 11:28:34;;;;;;;;;3.00;2.00;;;;;14.43;100.00;96762.88;6238919;28;96376;-60
2024/01/04 11:31:43;;;;;;;;;3.00;3.00;;;;;14.39;100.00;96770.00;6222284;28;98079;-60
2024/01/04 11:34:47;;;;;;;;;4.00;4.00;;;;;14.39;100.00;96770.81;6222604;28;97845;-60
2024/01/04 11:37:53;;;;;;;;;2.40;2.00;;;;;14.38;100.00;96771.09;6239113;27;96341;-60
2024/01/04 11:40:57;;;;;;;;;2.00;2.00;;;;;14.29;100.00;96784.50;6230880;28;96919;-60
2024/01/04 11:44:00;;;;;;;;;2.00;2.00;;;;;14.17;100.00;96781.47;6230215;28;97606;-60
2024/01/04 11:47:04;;;;;;;;;2.00;2.00;;;;;14.14;100.00;96788.25;6205688;28;96843;-60
2024/01/04 11:50:17;;;;;;;;;2.00;2.00;;;;;14.03;100.00;96792.22;6239125;28;96982;-60
2024/01/04 11:53:28;;;;;;;;;2.00;2.00;;;;;13.85;100.00;96798.47;6238867;28;96299;-61
2024/01/04 11:56:31;;;;;;;;;2.40;2.40;;;;;13.74;100.00;96797.78;6223057;28;96693;-59
2024/01/04 11:59:34;;;;;;;;;2.00;2.00;;;;;13.75;100.00;96801.31;6230012;28;97071;-60
2024/01/04 12:02:40;;;;;;;;;3.00;3.00;;;;;13.71;100.00;96798.41;6245204;27;96805;-60
2024/01/04 12:05:45;;;;;;;;;2.00;2.00;;;;;13.57;100.00;96789.38;6265470;27;96719;-60
2024/01/04 12:08:49;;;;;;;;;2.00;2.00;;;;;13.58;100.00;96799.13;6265606;27;96712;-60
2024/01/04 12:11:54;;;;;;;;;1.00;1.00;;;;;13.44;100.00;96784.66;6230957;27;96682;-60
2024/01/04 12:15:00;;;;;;;;;4.00;3.00;;;;;13.37;100.00;96795.88;6247991;27;96890;-60
2024/01/04 12:18:04;;;;;;;;;2.00;2.00;;;;;13.32;100.00;96787.81;6233998;28;97149;-60
2024/01/04 12:21:08;;;;;;;;;2.00;2.00;;;;;13.51;100.00;96797.84;6220704;27;98508;-60
2024/01/04 12:24:22;;;;;;;;;2.00;2.00;;;;;13.63;100.00;96790.94;6237567;27;96740;-59
2024/01/04 12:27:25;;;;;;;;;2.40;2.40;;;;;13.73;100.00;96779.16;6226154;27;97044;-60
2024/01/04 12:30:29;;;;;;;;;2.00;2.00;;;;;13.78;100.00;96787.97;6215274;27;96835;-60
2024/01/04 12:33:32;;;;;;;;;2.60;2.60;;;;;13.81;100.00;96816.41;6245638;27;96572;-61
2024/01/04 12:36:36;;;;;;;;;2.00;1.50;;;;;13.71;100.00;96803.00;6244941;27;96728;-60
2024/01/04 12:39:40;;;;;;;;;2.00;1.75;;;;;13.61;100.00;96803.13;6224886;27;98383;-62
2024/01/04 12:42:44;;;;;;;;;3.00;2.50;;;;;13.49;100.00;96787.31;6240163;27;96935;-62
2024/01/04 12:45:49;;;;;;;;;3.75;3.75;;;;;13.59;100.00;96803.41;6247006;27;96323;-61
2024/01/04 12:48:53;;;;;;;;;2.80;2.00;;;;;13.47;100.00;96823.91;6247132;27;98680;-62
2024/01/04 12:51:56;;;;;;;;;3.00;2.00;;;;;13.45;100.00;96829.59;6237915;27;96683;-62
2024/01/04 12:55:00;;;;;;;;;2.00;2.00;;;;;13.26;100.00;96831.44;6239309;27;96384;-61
2024/01/04 12:58:04;;;;;;;;;2.00;1.00;;;;;13.38;100.00;96861.63;6238060;27;96903;-62
2024/01/04 13:01:07;;;;;;;;;2.00;1.00;;;;;13.29;100.00;96874.97;6234797;27;98567;-62
2024/01/04 13:04:11;;;;;;;;;1.00;1.00;;;;;13.13;100.00;96881.66;6237223;28;96610;-62
2024/01/04 13:07:14;;;;;;;;;1.00;1.00;;;;;13.07;100.00;96900.88;6233908;28;96419;-62
2024/01/04 13:10:19;;;;;;;;;1.00;1.00;;;;;12.80;100.00;96883.31;6229632;28;96394;-62
2024/01/04 13:13:23;;;;;;;;;2.00;2.00;;;;;12.84;100.00;96884.34;6228390;28;96461;-62
2024/01/04 13:16:28;;;;;;;;;2.00;1.40;;;;;12.78;100.00;96888.19;6232155;28;96675;-62
2024/01/04 13:19:31;;;;;;;;;1.00;1.00;;;;;12.78;100.00;96895.47;6237070;27;96369;-62
2024/01/04 13:22:34;;;;;;;;;2.00;2.00;;;;;12.58;100.00;96901.88;6233310;27;96494;-62
2024/01/04 13:25:39;;;;;;;;;1.50;1.50;;;;;12.59;100.00;96925.09;6230137;27;97511;-62
2024/01/04 13:28:42;;;;;;;;;1.00;1.00;;;;;12.45;100.00;96910.63;6228615;28;96358;-62
2024/01/04 13:31:45;;;;;;;;;1.00;1.00;;;;;12.39;100.00;96919.84;6233643;27;96749;-62
2024/01/04 13:34:49;;;;;;;;;2.20;1.20;;;;;12.32;100.00;96925.56;6233976;27;96436;-61
2024/01/04 13:37:52;;;;;;;;;3.00;2.40;;;;;12.09;100.00;96937.84;6198413;28;99899;-62
2024/01/04 13:40:56;;;;;;;;;1.50;1.00;;;;;12.06;100.00;96934.91;6234854;28;96797;-61
2024/01/04 13:43:59;;;;;;;;;2.40;2.40;;;;;11.89;100.00;96929.84;6200777;28;97891;-62
2024/01/04 13:47:03;;;;;;;;;3.00;2.00;;;;;11.84;100.00;96942.56;6236379;27;97019;-61
2024/01/04 13:50:10;;;;;;;;;2.00;1.40;;;;;11.81;100.00;96929.63;6238883;27;98590;-64
2024/01/04 13:53:13;;;;;;;;;1.40;1.40;;;;;11.79;100.00;96938.00;6224629;27;96666;-63
2024/01/04 13:56:18;;;;;;;;;1.80;1.80;;;;;11.85;100.00;96950.41;6241872;27;96950;-65
2024/01/04 13:59:24;;;;;;;;;2.00;2.00;;;;;11.84;100.00;96937.16;6231067;27;96657;-63
2024/01/04 14:02:28;;;;;;;;;3.00;3.00;;;;;11.87;100.00;96934.75;6212579;28;98451;-66
2024/01/04 14:05:31;;;;;;;;;2.00;2.00;;;;;11.95;100.00;96947.66;6213167;28;96842;-66
2024/01/04 14:08:39;;;;;;;;;1.00;1.00;;;;;12.00;100.00;96944.13;6215733;28;96309;-64
2024/01/04 14:11:44;;;;;;;;;2.00;2.00;;;;;11.92;100.00;96942.00;6214820;28;96856;-64
2024/01/04 14:14:48;;;;;;;;;1.00;1.00;;;;;11.90;100.00;96936.88;6215960;28;96220;-64